createdAt,value
2023-07-11T00:02:50.124Z,38.40
2023-07-11T00:12:54.080Z,41.60
2023-07-11T00:22:59.136Z,38.60
2023-07-11T00:33:02.868Z,40.20
2023-07-11T00:43:12.592Z,38.70
2023-07-11T00:53:17.527Z,41.20
2023-07-11T01:03:25.167Z,41.80
2023-07-11T01:13:29.113Z,42.70
2023-07-11T01:23:35.433Z,41.90
2023-07-11T01:33:39.294Z,41.30
2023-07-11T01:43:44.625Z,42.20
2023-07-11T01:53:48.642Z,43.60
2023-07-11T02:03:53.949Z,43.70
2023-07-11T02:13:57.703Z,44.50
2023-07-11T02:24:02.770Z,47.90
2023-07-11T02:34:07.104Z,47.90
2023-07-11T02:44:12.574Z,49.10
2023-07-11T02:54:16.618Z,49.50
2023-07-11T03:04:21.627Z,51.80
2023-07-11T03:14:25.406Z,52.40
2023-07-11T03:24:30.405Z,50.30
2023-07-11T03:34:38.033Z,52.70
2023-07-11T03:44:46.570Z,54.90
2023-07-11T03:54:53.668Z,53.70
2023-07-11T04:04:58.640Z,55.00
2023-07-11T04:15:03.012Z,54.40
2023-07-11T04:25:08.894Z,55.40
2023-07-11T04:35:15.802Z,52.80
2023-07-11T04:45:20.885Z,51.40
2023-07-11T04:55:24.556Z,51.20
2023-07-11T05:05:29.899Z,49.30
2023-07-11T05:15:33.682Z,48.10
2023-07-11T05:25:39.643Z,46.20
2023-07-11T05:35:58.927Z,45.40
2023-07-11T05:46:04.395Z,43.10
2023-07-11T05:56:09.076Z,41.20
2023-07-11T06:06:16.177Z,40.80
2023-07-11T06:16:22.384Z,40.10
2023-07-11T06:26:27.690Z,37.80
2023-07-11T06:36:31.427Z,36.30
2023-07-11T06:46:36.486Z,35.40
2023-07-11T06:56:40.158Z,34.30
2023-07-11T07:06:45.905Z,33.90
2023-07-11T07:16:49.730Z,31.80
2023-07-11T07:26:55.110Z,30.00
2023-07-11T07:36:59.555Z,29.20
2023-07-11T07:47:04.875Z,26.80
2023-07-11T07:57:08.730Z,25.20
2023-07-11T08:07:14.582Z,23.90
2023-07-11T08:17:18.278Z,21.10
2023-07-11T08:27:23.555Z,18.10
2023-07-11T08:37:27.357Z,17.50
2023-07-11T08:47:38.824Z,15.40
2023-07-11T08:57:47.114Z,13.40
2023-07-11T09:07:54.093Z,12.60
2023-07-11T09:18:09.646Z,9.00
2023-07-11T09:28:20.751Z,8.50
2023-07-11T09:38:31.881Z,6.00
2023-07-11T09:48:37.758Z,5.50
2023-07-11T09:58:42.669Z,4.60
2023-07-11T10:08:50.715Z,4.20
2023-07-11T10:18:54.950Z,4.30
2023-07-11T10:29:08.833Z,3.00
2023-07-11T10:39:26.796Z,2.70
2023-07-11T10:49:39.522Z,3.20
2023-07-11T10:59:43.349Z,3.20
2023-07-11T11:09:57.447Z,3.00
2023-07-11T11:20:14.431Z,3.10
2023-07-11T11:30:34.497Z,1.40
2023-07-11T11:40:41.996Z,1.40
2023-07-11T12:00:57.719Z,3.00
2023-07-11T12:11:32.742Z,1.00
2023-07-11T12:21:44.224Z,1.60
2023-07-11T12:32:30.428Z,1.00
2023-07-11T12:42:52.698Z,1.00
2023-07-11T12:53:04.677Z,1.00
2023-07-11T13:03:25.071Z,1.00
2023-07-11T13:13:32.869Z,1.00
2023-07-11T13:23:39.874Z,1.00
2023-07-11T13:33:44.881Z,1.00
2023-07-11T13:43:49.175Z,1.00
2023-07-11T13:53:58.858Z,1.00
2023-07-11T14:04:03.609Z,1.00
2023-07-11T14:14:24.937Z,1.00
2023-07-11T14:24:38.761Z,1.00
2023-07-11T14:34:44.096Z,1.00
2023-07-11T14:44:48.408Z,1.00
2023-07-11T15:25:32.432Z,1.00
2023-07-11T15:35:37.438Z,1.00
2023-07-11T15:45:41.100Z,1.00
2023-07-11T15:55:46.865Z,1.00
2023-07-11T16:05:52.915Z,1.00
2023-07-11T16:16:00.421Z,1.00
2023-07-11T16:26:04.505Z,1.00
2023-07-11T16:36:16.408Z,1.00
2023-07-11T16:46:21.079Z,1.00
2023-07-11T16:56:26.273Z,1.00
2023-07-11T17:06:33.321Z,1.00
2023-07-11T17:16:42.190Z,1.00
2023-07-11T17:26:45.971Z,1.00
2023-07-11T17:36:51.709Z,1.00
2023-07-11T17:47:30.479Z,1.00
2023-07-11T17:57:23.885Z,1.00
2023-07-11T18:07:34.266Z,1.00
2023-07-11T18:17:40.048Z,1.00
2023-07-11T18:27:44.057Z,1.40
2023-07-11T18:37:49.960Z,1.80
2023-07-11T18:47:56.011Z,6.90
2023-07-11T18:58:03.277Z,7.80
2023-07-11T19:08:17.166Z,9.50
2023-07-11T19:18:26.277Z,12.20
2023-07-11T19:28:33.053Z,13.70
2023-07-11T19:38:38.053Z,21.90
2023-07-11T19:48:42.318Z,24.50
2023-07-11T19:58:47.544Z,28.20
2023-07-11T20:08:51.968Z,29.50
2023-07-11T20:18:57.217Z,29.50
2023-07-11T20:29:00.997Z,29.00
2023-07-11T20:39:10.843Z,24.30
2023-07-11T20:49:14.802Z,23.40
2023-07-11T20:59:20.388Z,24.90
2023-07-11T21:09:25.925Z,20.20
2023-07-11T21:19:31.151Z,17.70
2023-07-11T21:29:34.916Z,23.40
2023-07-11T21:39:40.755Z,21.20
2023-07-11T21:49:44.430Z,20.60
2023-07-11T21:59:55.227Z,20.20
2023-07-11T22:09:58.922Z,27.40
2023-07-11T22:20:04.571Z,41.70
2023-07-11T22:30:24.660Z,47.30
2023-07-11T22:40:34.743Z,56.30
2023-07-11T22:50:48.402Z,57.50
2023-07-11T23:00:55.317Z,57.50
2023-07-11T23:11:00.207Z,58.30
2023-07-11T23:21:05.495Z,59.50
2023-07-11T23:31:11.311Z,65.10
2023-07-11T23:41:16.973Z,72.20
2023-07-11T23:51:22.640Z,73.20
